createdAt,value
2019-04-27T00:00:17.709Z,15.6
2019-04-27T00:05:17.868Z,5.6
2019-04-27T00:10:25.167Z,15.8
2019-04-27T00:15:17.563Z,5
2019-04-27T00:20:39.442Z,17.8
2019-04-27T00:25:27.489Z,6.7
2019-04-27T00:30:18.545Z,16.4
2019-04-27T00:35:17.559Z,17.7
2019-04-27T00:40:17.741Z,19
2019-04-27T00:45:17.771Z,19.4
2019-04-27T00:50:23.827Z,20
2019-04-27T00:55:18.056Z,9.1
2019-04-27T01:00:23.941Z,18.1
2019-04-27T01:05:23.069Z,18.7
2019-04-27T01:10:17.322Z,19.1
2019-04-27T01:15:24.035Z,6.9
2019-04-27T01:20:18.824Z,18.8
2019-04-27T01:25:19.391Z,19.5
2019-04-27T01:30:19.396Z,18.3
2019-04-27T01:35:19.273Z,17.6
2019-04-27T01:40:19.624Z,8.3
2019-04-27T01:45:19.248Z,18.3
2019-04-27T01:50:19.148Z,18.3
2019-04-27T01:55:29.825Z,18.5
2019-04-27T02:00:17.243Z,7.1
2019-04-27T02:05:19.652Z,16.6
2019-04-27T02:10:19.594Z,17
2019-04-27T02:15:19.754Z,15.9
2019-04-27T02:20:17.406Z,16.9
2019-04-27T02:25:21.059Z,15.8
2019-04-27T02:30:17.246Z,17
2019-04-27T02:35:19.800Z,8.9
2019-04-27T02:40:23.044Z,16.7
2019-04-27T02:45:19.545Z,18.1
2019-04-27T02:50:19.874Z,17.2
2019-04-27T02:55:21.390Z,17.1
2019-04-27T03:00:23.504Z,16.7
2019-04-27T03:05:25.126Z,17.7
2019-04-27T03:10:19.641Z,17.3
2019-04-27T03:15:20.481Z,18
2019-04-27T03:20:20.109Z,18.4
2019-04-27T03:25:21.375Z,18.3
2019-04-27T03:30:36.545Z,20.1
2019-04-27T03:35:23.271Z,6.7
2019-04-27T03:40:20.714Z,20.1
2019-04-27T03:45:20.405Z,9.8
2019-04-27T03:50:20.225Z,21
2019-04-27T03:55:20.256Z,21
2019-04-27T04:00:20.414Z,21.1
2019-04-27T04:05:20.298Z,19.9
2019-04-27T04:10:23.622Z,20.6
2019-04-27T04:15:35.466Z,7.4
2019-04-27T04:20:20.550Z,20.4
2019-04-27T04:25:25.246Z,19
2019-04-27T04:30:20.411Z,18.9
2019-04-27T04:35:23.005Z,19.2
2019-04-27T04:40:32.181Z,7.4
2019-04-27T04:45:17.178Z,18.2
2019-04-27T04:50:17.296Z,17.4
2019-04-27T04:55:20.121Z,5
2019-04-27T05:00:19.649Z,17.1
2019-04-27T05:05:21.981Z,7
2019-04-27T05:10:22.139Z,16.7
2019-04-27T05:15:20.851Z,16.6
2019-04-27T05:20:26.370Z,6
2019-04-27T05:25:19.245Z,17.4
2019-04-27T05:30:17.610Z,17.8
2019-04-27T05:35:19.901Z,17.9
2019-04-27T05:40:20.158Z,19
2019-04-27T05:45:22.762Z,20.5
2019-04-27T05:50:22.036Z,19.6
2019-04-27T05:55:19.147Z,7.5
2019-04-27T06:00:24.456Z,20.9
2019-04-27T06:05:29.192Z,21.1
2019-04-27T06:10:22.375Z,7.1
2019-04-27T06:15:17.644Z,21.6
2019-04-27T06:20:24.237Z,7.3
2019-04-27T06:25:31.031Z,21.6
2019-04-27T06:30:19.059Z,23
2019-04-27T06:35:18.895Z,5.7
2019-04-27T06:40:29.864Z,22.3
2019-04-27T06:45:20.102Z,24.5
2019-04-27T06:50:17.485Z,22.2
2019-04-27T06:55:19.167Z,6.8
2019-04-27T07:00:24.288Z,22.2
2019-04-27T07:05:24.156Z,22
2019-04-27T07:10:20.032Z,4.6
2019-04-27T07:15:20.874Z,21.3
2019-04-27T07:20:18.713Z,5.3
2019-04-27T07:25:18.740Z,20.9
2019-04-27T07:30:19.336Z,21.3
2019-04-27T07:35:22.323Z,20.9
2019-04-27T07:40:19.335Z,6.4
2019-04-27T07:45:30.143Z,20.1
2019-04-27T07:50:23.213Z,6.9
2019-04-27T07:55:18.948Z,19.7
2019-04-27T08:00:22.995Z,4
2019-04-27T08:05:19.023Z,18.8
2019-04-27T08:10:19.664Z,17.5
2019-04-27T08:15:22.647Z,17.4
2019-04-27T08:20:21.515Z,6
2019-04-27T08:25:24.663Z,17.6
2019-04-27T08:30:40.122Z,2.9
2019-04-27T08:35:19.269Z,15.3
2019-04-27T08:40:17.023Z,3.1
2019-04-27T08:45:19.953Z,13.2
2019-04-27T08:50:19.336Z,13.7
2019-04-27T08:55:23.419Z,12.8
2019-04-27T09:00:20.753Z,1.1
2019-04-27T09:05:24.950Z,11
2019-04-27T09:10:29.222Z,9.6
2019-04-27T09:15:19.100Z,8.7
2019-04-27T09:20:22.571Z,7.8
2019-04-27T09:25:19.500Z,6.8
2019-04-27T09:30:22.433Z,7
2019-04-27T09:35:18.450Z,7
2019-04-27T09:40:21.410Z,0.8
2019-04-27T09:45:22.601Z,4.9
2019-04-27T09:50:17.494Z,0.5
2019-04-27T10:00:17.291Z,3.1
2019-04-27T10:05:27.473Z,3
2019-04-27T10:10:27.556Z,2.5
2019-04-27T10:15:17.465Z,0.1
2019-04-27T10:20:17.971Z,2.2
2019-04-27T10:25:16.914Z,1
2019-04-27T10:30:18.928Z,1.7
2019-04-27T10:35:16.842Z,0.3
2019-04-27T10:40:23.019Z,0.5
2019-04-27T10:45:16.911Z,0.4
2019-04-27T10:50:17.900Z,0.6
2019-04-27T10:55:17.854Z,0.7
2019-04-27T11:00:17.760Z,0.3
2019-04-27T11:05:22.754Z,0.9
2019-04-27T11:10:16.814Z,0.3
2019-04-27T11:15:17.701Z,0.2
2019-04-27T11:20:17.811Z,0.5
2019-04-27T11:25:18.580Z,0.2
2019-04-27T11:30:18.553Z,0.5
2019-04-27T11:35:17.752Z,0.4
2019-04-27T11:40:16.930Z,0.7
2019-04-27T11:45:16.849Z,0.6
2019-04-27T11:50:18.830Z,0.4
2019-04-27T11:55:16.901Z,0.3
2019-04-27T12:00:16.899Z,0.3
2019-04-27T12:05:16.778Z,0.4
2019-04-27T12:10:16.999Z,0.2
2019-04-27T12:15:16.894Z,0.4
2019-04-27T12:20:18.251Z,0.2
2019-04-27T12:25:18.241Z,0.5
2019-04-27T12:30:17.159Z,0.1
2019-04-27T12:35:17.063Z,0.2
2019-04-27T12:40:17.383Z,1.3
2019-04-27T12:45:19.689Z,0.3
2019-04-27T12:50:17.607Z,0.3
2019-04-27T12:55:17.664Z,0
2019-04-27T13:00:17.627Z,0.4
2019-04-27T13:05:17.512Z,0.2
2019-04-27T13:10:32.658Z,0
2019-04-27T13:15:17.567Z,0.2
2019-04-27T13:20:22.759Z,0.2
2019-04-27T13:25:17.698Z,0.3
2019-04-27T13:30:17.693Z,0.5
2019-04-27T13:35:27.610Z,1
2019-04-27T13:40:17.658Z,0.2
2019-04-27T13:45:17.588Z,1
2019-04-27T13:50:17.492Z,0.6
2019-04-27T13:55:17.560Z,0.6
2019-04-27T14:00:21.869Z,1.2
2019-04-27T14:05:22.997Z,0.6
2019-04-27T14:10:20.471Z,1.9
2019-04-27T14:15:18.936Z,0.4
2019-04-27T14:20:18.492Z,0.3
2019-04-27T14:25:18.397Z,0.5
2019-04-27T14:30:18.458Z,1.7
2019-04-27T14:35:18.564Z,0.5
2019-04-27T14:40:22.718Z,1.7
2019-04-27T14:45:19.150Z,0.5
2019-04-27T14:50:19.018Z,1.7
2019-04-27T14:55:16.917Z,0.3
2019-04-27T15:00:23.359Z,1.7
2019-04-27T15:05:18.397Z,1
2019-04-27T15:10:17.667Z,0.5
2019-04-27T15:15:17.695Z,2
2019-04-27T15:20:17.887Z,0.5
2019-04-27T15:25:23.095Z,2.4
2019-04-27T15:30:18.483Z,0.8
2019-04-27T15:35:21.859Z,3.4
2019-04-27T15:40:18.792Z,0.7
2019-04-27T15:45:24.420Z,4.1
2019-04-27T15:50:18.494Z,1
2019-04-27T15:55:36.471Z,4.6
2019-04-27T16:00:21.115Z,3.9
2019-04-27T16:05:28.493Z,5
2019-04-27T16:10:22.677Z,3.9
2019-04-27T16:15:22.934Z,1
2019-04-27T16:20:33.726Z,3.1
2019-04-27T16:25:18.816Z,3.9
2019-04-27T16:30:20.713Z,2.1
2019-04-27T16:35:23.080Z,3.9
2019-04-27T16:40:25.632Z,3.6
2019-04-27T16:45:22.788Z,3.7
2019-04-27T16:50:26.618Z,3.3
2019-04-27T16:55:20.023Z,3.8
2019-04-27T17:00:22.569Z,3.7
2019-04-27T17:05:17.554Z,3.5
2019-04-27T17:10:26.590Z,4.6
2019-04-27T17:15:19.183Z,3.2
2019-04-27T17:20:21.440Z,2
2019-04-27T17:25:23.414Z,3.9
2019-04-27T17:30:19.277Z,3.2
2019-04-27T17:35:18.704Z,4.3
2019-04-27T17:40:17.716Z,5.1
2019-04-27T17:45:21.757Z,4.3
2019-04-27T17:50:25.216Z,4.2
2019-04-27T17:55:24.187Z,4.3
2019-04-27T18:00:19.028Z,2.5
2019-04-27T18:05:18.236Z,3.6
2019-04-27T18:10:24.207Z,4.2
2019-04-27T18:15:17.264Z,3.9
2019-04-27T18:20:18.673Z,3.4
2019-04-27T18:25:19.003Z,3.6
2019-04-27T18:30:19.215Z,1.9
2019-04-27T18:35:27.327Z,3.3
2019-04-27T18:40:18.484Z,2.2
2019-04-27T18:45:18.725Z,3.1
2019-04-27T18:50:22.895Z,2.9
2019-04-27T18:55:21.000Z,4.3
2019-04-27T19:00:22.374Z,2.4
2019-04-27T19:05:19.134Z,1.5
2019-04-27T19:10:19.496Z,2.1
2019-04-27T19:15:19.143Z,2.1
2019-04-27T19:20:19.176Z,2.3
2019-04-27T19:25:18.606Z,1.8
2019-04-27T19:30:22.735Z,0.5
2019-04-27T19:35:20.251Z,2
2019-04-27T19:40:18.962Z,2.5
2019-04-27T19:45:16.893Z,2.2
2019-04-27T19:50:19.006Z,0.9
2019-04-27T19:55:19.172Z,1.8
2019-04-27T20:00:18.800Z,0.5
2019-04-27T20:05:19.260Z,2.5
2019-04-27T20:10:17.373Z,1.6
2019-04-27T20:15:27.680Z,1.8
2019-04-27T20:20:17.740Z,1
2019-04-27T20:25:17.702Z,1.8
2019-04-27T20:30:22.729Z,1.9
2019-04-27T20:35:17.671Z,1.7
2019-04-27T20:40:17.715Z,1.2
2019-04-27T20:45:22.644Z,1.9
2019-04-27T20:50:20.353Z,1
2019-04-27T20:55:17.313Z,1.9
2019-04-27T21:00:17.224Z,0.5
2019-04-27T21:05:22.190Z,1.8
2019-04-27T21:10:17.401Z,2.6
2019-04-27T21:15:17.402Z,2.3
2019-04-27T21:20:17.625Z,2.3
2019-04-27T21:25:17.760Z,1.2
2019-04-27T21:30:17.679Z,2.5
2019-04-27T21:35:22.561Z,3.7
2019-04-27T21:40:18.121Z,2
2019-04-27T21:45:17.383Z,1.8
2019-04-27T21:50:27.419Z,2.1
2019-04-27T21:55:17.350Z,1.8
2019-04-27T22:00:27.440Z,2
2019-04-27T22:05:17.371Z,2.2
2019-04-27T22:10:17.969Z,1.7
2019-04-27T22:15:16.965Z,2.3
2019-04-27T22:20:17.272Z,1.9
2019-04-27T22:25:17.302Z,2.4
2019-04-27T22:30:17.240Z,1.7
2019-04-27T22:35:17.194Z,2.3
2019-04-27T22:40:18.619Z,1.7
2019-04-27T22:45:17.549Z,2.3
2019-04-27T22:50:17.516Z,2.3
2019-04-27T22:55:17.449Z,2.2
2019-04-27T23:00:17.461Z,3.1
2019-04-27T23:05:17.371Z,3.5
2019-04-27T23:10:17.428Z,3.5
2019-04-27T23:15:17.743Z,1.9
2019-04-27T23:20:17.059Z,3.4
2019-04-27T23:25:17.000Z,3.9
2019-04-27T23:30:16.939Z,3.3
2019-04-27T23:35:21.901Z,3.3
2019-04-27T23:40:16.908Z,3.2
2019-04-27T23:45:16.891Z,4
2019-04-27T23:50:17.890Z,3.9
2019-04-27T23:55:22.824Z,4.6
